Time;durP1;ratioP1;P1;durP2;ratioP2;P2;SDS_P1;SDS_P2;PMS_P1;PMS_P2;Temp;Humidity;BMP_temperature;BMP_pressure;BME280_temperature;BME280_humidity;BME280_pressure;Samples;Min_cycle;Max_cycle;Signal;HPM_P1;HPM_P2
2023/12/01 00:02:05;;;;;;;11.25;9.93;;;;;;;4.33;72.11;97645.13;4493842;31;34563;-90
2023/12/01 00:04:32;;;;;;;8.25;4.75;;;;;;;4.11;72.58;97643.97;4502341;31;33038;-88
2023/12/01 00:07:00;;;;;;;14.13;10.27;;;;;;;4.46;71.63;97651.28;4501508;31;34000;-89
2023/12/01 00:09:27;;;;;;;16.45;12.10;;;;;;;4.24;72.04;97658.69;4507123;31;34150;-89
2023/12/01 00:11:55;;;;;;;12.37;10.07;;;;;;;4.22;72.43;97657.81;4512235;31;33976;-90
2023/12/01 00:14:23;;;;;;;8.60;4.55;;;;;;;4.28;72.50;97655.34;4489245;31;32698;-88
2023/12/01 00:16:50;;;;;;;11.68;9.88;;;;;;;4.62;71.81;97648.94;4509946;31;33203;-87
2023/12/01 00:19:18;;;;;;;15.32;10.77;;;;;;;4.36;72.04;97643.47;4513035;31;33516;-86
2023/12/01 00:21:46;;;;;;;15.40;11.15;;;;;;;4.02;72.55;97643.88;4485073;31;32808;-91
2023/12/01 00:24:13;;;;;;;9.52;4.87;;;;;;;4.08;72.07;97654.19;4499240;31;33674;-88
2023/12/01 00:26:41;;;;;;;13.98;11.05;;;;;;;4.22;71.82;97662.94;4511343;31;33820;-88
2023/12/01 00:29:08;;;;;;;12.88;10.80;;;;;;;3.90;72.82;97675.28;4499105;31;34132;-90
2023/12/01 00:31:36;;;;;;;9.25;4.82;;;;;;;3.96;72.99;97677.09;4508921;31;33679;-91
2023/12/01 00:34:04;;;;;;;13.52;11.12;;;;;;;4.49;71.63;97679.53;4489868;31;32875;-89
2023/12/01 00:36:32;;;;;;;9.75;4.20;;;;;;;3.94;73.03;97678.75;4498674;31;34102;-88
2023/12/01 00:39:00;;;;;;;17.42;12.68;;;;;;;4.19;72.14;97668.03;4499924;31;33464;-88
2023/12/01 00:41:28;;;;;;;10.40;5.22;;;;;;;4.19;71.95;97668.03;4507614;31;34494;-88
2023/12/01 00:43:55;;;;;;;14.52;10.90;;;;;;;4.37;71.58;97678.53;4486907;31;34226;-88
2023/12/01 00:46:23;;;;;;;14.43;11.45;;;;;;;4.24;71.85;97681.75;4508934;31;33516;-90
2023/12/01 00:48:50;;;;;;;10.32;5.32;;;;;;;4.16;72.31;97693.63;4497816;31;34149;-89
2023/12/01 00:51:18;;;;;;;15.57;12.20;;;;;;;4.67;71.36;97697.75;4491471;31;33059;-89
2023/12/01 00:53:46;;;;;;;17.85;12.73;;;;;;;4.05;72.83;97710.56;4511414;31;32886;-88
2023/12/01 00:56:14;;;;;;;15.05;12.52;;;;;;;4.08;72.85;97708.03;4497926;31;33788;-89
2023/12/01 00:58:42;;;;;;;14.75;11.70;;;;;;;3.95;73.06;97708.72;4501267;31;33428;-86
2023/12/01 01:01:09;;;;;;;16.98;12.32;;;;;;;4.15;72.43;97686.78;4498172;31;34593;-90
2023/12/01 01:03:37;;;;;;;11.27;4.95;;;;;;;3.98;73.38;97701.03;4498671;31;34265;-87
2023/12/01 01:06:05;;;;;;;7.32;4.07;;;;;;;4.50;71.71;97699.22;4492308;31;34609;-88
2023/12/01 01:08:32;;;;;;;13.60;10.65;;;;;;;4.64;71.53;97690.84;4503731;31;33809;-88
2023/12/01 01:11:00;;;;;;;12.75;11.02;;;;;;;4.49;71.37;97688.09;4513613;31;34716;-89
2023/12/01 01:13:28;;;;;;;12.85;10.85;;;;;;;4.49;71.71;97695.81;4500248;31;34051;-88
2023/12/01 01:15:55;;;;;;;16.42;11.90;;;;;;;4.31;71.97;97685.28;4486063;31;34682;-87
2023/12/01 01:18:23;;;;;;;10.90;4.43;;;;;;;4.26;72.19;97698.06;4498507;31;34157;-87
2023/12/01 01:20:51;;;;;;;13.27;10.25;;;;;;;4.75;71.00;97678.16;4499237;31;34005;-91
2023/12/01 01:23:18;;;;;;;12.25;10.13;;;;;;;4.59;71.22;97681.41;4500062;31;32170;-89
2023/12/01 01:25:46;;;;;;;10.60;8.80;;;;;;;4.41;71.86;97678.59;4505363;31;34525;-88
2023/12/01 01:28:13;;;;;;;12.75;9.68;;;;;;;4.48;71.51;97691.53;4501821;31;33398;-88
2023/12/01 01:30:41;;;;;;;11.20;9.98;;;;;;;4.36;72.06;97701.63;4501177;31;34149;-89
2023/12/01 01:33:09;;;;;;;10.68;8.80;;;;;;;4.66;71.25;97696.03;4515127;31;33451;-93
2023/12/01 01:35:37;;;;;;;12.32;9.23;;;;;;;4.53;71.58;97686.44;4507603;31;32836;-88
2023/12/01 01:38:04;;;;;;;8.82;3.90;;;;;;;4.52;71.60;97695.00;4511220;31;34060;-88
2023/12/01 01:40:34;;;;;;;12.07;8.90;;;;;;;5.04;70.34;97687.91;4506895;31;34710;-88
2023/12/01 01:43:03;;;;;;;11.27;8.55;;;;;;;4.90;70.31;97682.63;4464444;31;33505;-86
2023/12/01 01:45:31;;;;;;;11.52;8.70;;;;;;;4.88;70.38;97682.56;4489751;31;33436;-87
2023/12/01 01:47:59;;;;;;;11.18;9.13;;;;;;;4.55;70.90;97687.34;4505151;31;32139;-86
2023/12/01 01:50:27;;;;;;;8.00;3.58;;;;;;;4.46;71.33;97693.19;4484462;31;33102;-86
2023/12/01 01:52:54;;;;;;;10.00;8.13;;;;;;;4.83;70.65;97694.50;4503526;31;32466;-90
2023/12/01 01:55:22;;;;;;;10.73;8.68;;;;;;;4.83;70.36;97689.38;4498419;31;33622;-90
2023/12/01 01:57:50;;;;;;;8.25;3.85;;;;;;;4.64;70.72;97690.84;4497465;31;32723;-86
2023/12/01 02:00:18;;;;;;;6.93;3.78;;;;;;;5.02;69.99;97697.28;4488921;31;34910;-92
2023/12/01 02:02:47;;;;;;;10.70;8.52;;;;;;;5.25;69.18;97697.53;4514697;31;34589;-88
2023/12/01 02:05:14;;;;;;;11.18;9.10;;;;;;;5.02;69.58;97705.00;4497091;31;33868;-93
2023/12/01 02:07:42;;;;;;;13.30;10.82;;;;;;;4.79;70.14;97702.16;4507967;31;34796;-88
2023/12/01 02:10:15;;;;;;;13.95;10.88;;;;;;;4.63;70.68;97696.84;4505134;31;33524;-88
2023/12/01 02:12:45;;;;;;;11.43;9.90;;;;;;;4.62;70.64;97700.25;4513370;31;33471;-88
2023/12/01 02:15:13;;;;;;;12.55;9.95;;;;;;;4.94;69.75;97699.78;4504009;31;34918;-88
2023/12/01 02:17:41;;;;;;;11.65;9.43;;;;;;;4.93;69.84;97699.78;4491782;31;33813;-88
2023/12/01 02:20:14;;;;;;;12.37;9.70;;;;;;;4.75;70.08;97706.41;4500911;31;34253;-88
2023/12/01 02:22:44;;;;;;;7.37;4.62;;;;;;;4.80;70.19;97706.44;4503226;31;34596;-88
2023/12/01 02:25:12;;;;;;;11.75;10.10;;;;;;;5.12;69.51;97694.00;4487829;31;33021;-87
2023/12/01 02:27:39;;;;;;;12.02;10.07;;;;;;;4.91;69.87;97696.31;4498699;31;34331;-86
2023/12/01 02:30:09;;;;;;;11.90;10.15;;;;;;;5.01;69.57;97682.72;4509993;31;32885;-87
2023/12/01 02:32:39;;;;;;;11.85;10.02;;;;;;;4.85;69.81;97679.13;4499916;31;33384;-88
2023/12/01 02:35:09;;;;;;;13.18;10.45;;;;;;;4.73;70.04;97694.38;4500312;31;34256;-86
2023/12/01 02:37:37;;;;;;;11.55;9.80;;;;;;;4.74;70.30;97698.69;4498372;31;34422;-87
2023/12/01 02:40:14;;;;;;;8.57;3.87;;;;;;;4.83;69.87;97686.81;4510920;31;34491;-90
2023/12/01 02:42:52;;;;;;;11.63;9.20;;;;;;;5.08;69.30;97687.09;4514407;31;32750;-87
2023/12/01 02:45:20;;;;;;;11.60;9.73;;;;;;;4.88;69.93;97687.72;4500319;31;33152;-87
2023/12/01 02:47:49;;;;;;;11.55;9.23;;;;;;;4.74;69.93;97694.41;4490961;31;34269;-89
2023/12/01 02:50:17;;;;;;;11.57;10.00;;;;;;;4.70;70.37;97696.91;4477680;31;34266;-88
2023/12/01 02:52:45;;;;;;;13.77;9.57;;;;;;;4.91;69.80;97698.87;4496444;31;34382;-88
2023/12/01 02:55:13;;;;;;;6.62;3.90;;;;;;;4.83;70.09;97706.50;4488656;31;34694;-86
2023/12/01 02:57:41;;;;;;;11.55;9.30;;;;;;;5.32;68.91;97689.91;4496656;31;34815;-88
2023/12/01 03:00:13;;;;;;;11.00;8.82;;;;;;;5.02;69.37;97684.44;4493448;31;33845;-88
2023/12/01 03:02:42;;;;;;;11.57;9.25;;;;;;;4.96;69.53;97695.50;4489668;31;34058;-88
2023/12/01 03:05:10;;;;;;;11.40;9.35;;;;;;;4.54;70.54;97711.25;4494448;31;34128;-86
2023/12/01 03:07:38;;;;;;;13.48;9.40;;;;;;;4.58;70.64;97701.06;4485945;31;33906;-89
2023/12/01 03:10:09;;;;;;;16.95;11.02;;;;;;;4.80;70.20;97715.00;4495228;31;33533;-88
2023/12/01 03:12:38;;;;;;;7.70;3.72;;;;;;;4.57;70.82;97708.72;4492955;31;34574;-90
2023/12/01 03:15:08;;;;;;;12.60;10.07;;;;;;;4.92;69.98;97698.03;4494377;31;33529;-89
2023/12/01 03:17:38;;;;;;;12.10;9.50;;;;;;;4.60;70.53;97703.62;4491079;31;34819;-90
2023/12/01 03:20:10;;;;;;;15.07;10.73;;;;;;;4.58;70.69;97716.47;4485588;31;33914;-92
2023/12/01 03:22:39;;;;;;;14.68;10.48;;;;;;;4.57;70.84;97717.28;4495404;31;33118;-90
2023/12/01 03:25:11;;;;;;;15.05;10.57;;;;;;;4.52;71.10;97707.81;4489684;31;33685;-91
2023/12/01 03:27:40;;;;;;;9.52;4.70;;;;;;;4.73;70.48;97710.62;4483162;31;34042;-90
2023/12/01 03:30:15;;;;;;;11.60;9.35;;;;;;;5.10;69.60;97701.66;4492572;31;34248;-89
2023/12/01 03:32:45;;;;;;;8.07;4.47;;;;;;;4.99;69.78;97694.69;4495965;31;33498;-88
2023/12/01 03:35:15;;;;;;;14.02;10.73;;;;;;;4.99;69.61;97702.38;4492509;31;33886;-89
2023/12/01 03:37:46;;;;;;;9.55;4.70;;;;;;;4.86;69.73;97699.69;4489799;31;34894;-89
2023/12/01 03:40:14;;;;;;;12.55;10.25;;;;;;;5.19;69.05;97703.47;4492110;31;33991;-90
2023/12/01 03:42:46;;;;;;;16.08;11.23;;;;;;;5.03;69.20;97710.12;4491410;31;33775;-88
2023/12/01 03:45:14;;;;;;;8.70;3.87;;;;;;;5.04;69.27;97716.16;4483938;31;32749;-89
2023/12/01 03:47:49;;;;;;;11.10;9.40;;;;;;;5.30;68.71;97701.88;4496422;31;34190;-90
2023/12/01 03:50:18;;;;;;;14.10;10.93;;;;;;;5.04;69.28;97709.31;4483771;31;34552;-89
2023/12/01 03:52:49;;;;;;;15.88;10.85;;;;;;;4.76;69.91;97718.38;4486813;31;34123;-91
2023/12/01 03:55:17;;;;;;;14.90;11.60;;;;;;;4.74;70.29;97703.81;4487216;31;34333;-89
2023/12/01 03:57:45;;;;;;;18.15;12.77;;;;;;;4.86;70.15;97703.97;4492174;31;35428;-89
2023/12/01 04:00:17;;;;;;;14.75;11.95;;;;;;;4.74;70.54;97696.97;4489675;31;33614;-89
2023/12/01 04:02:47;;;;;;;14.93;11.68;;;;;;;4.98;69.78;97687.84;4497303;31;34418;-89
2023/12/01 04:05:20;;;;;;;15.25;10.68;;;;;;;4.83;69.92;97689.38;4494259;31;33749;-89
2023/12/01 04:07:53;;;;;;;13.70;10.73;;;;;;;4.71;70.37;97689.25;4496637;31;34611;-89
2023/12/01 04:10:25;;;;;;;13.90;11.02;;;;;;;4.72;70.40;97695.22;4488047;31;33833;-89
2023/12/01 04:12:56;;;;;;;14.30;11.20;;;;;;;4.78;70.19;97688.47;4481498;31;33586;-89
2023/12/01 04:15:27;;;;;;;15.77;12.00;;;;;;;4.91;69.99;97697.16;4482493;31;33318;-88
2023/12/01 04:17:55;;;;;;;14.93;11.90;;;;;;;4.97;69.54;97698.97;4489063;31;34503;-87
2023/12/01 04:20:26;;;;;;;10.73;6.12;;;;;;;4.93;69.72;97697.19;4491279;31;33944;-88
2023/12/01 04:22:59;;;;;;;15.13;11.27;;;;;;;5.11;69.47;97676.81;4495515;31;33801;-91
2023/12/01 04:25:27;;;;;;;16.77;12.75;;;;;;;4.95;69.53;97677.53;4474378;32;33212;-88
2023/12/01 04:27:58;;;;;;;16.95;12.50;;;;;;;4.87;69.77;97683.44;4491857;31;34138;-92
2023/12/01 04:30:25;;;;;;;15.23;12.20;;;;;;;4.93;69.72;97684.37;4488256;31;34675;-88
2023/12/01 04:32:55;;;;;;;15.85;12.50;;;;;;;4.82;69.75;97695.38;4495982;31;33575;-88
2023/12/01 04:35:30;;;;;;;15.20;11.85;;;;;;;4.90;69.76;97700.59;4491049;31;34708;-88
2023/12/01 04:38:00;;;;;;;15.20;12.48;;;;;;;4.86;70.01;97698.84;4493206;31;34082;-88
2023/12/01 04:40:29;;;;;;;15.52;12.75;;;;;;;4.75;70.26;97698.69;4486559;31;33604;-89
2023/12/01 04:42:57;;;;;;;16.52;12.50;;;;;;;4.81;70.26;97688.50;4485538;31;33315;-87
2023/12/01 04:45:27;;;;;;;17.98;12.52;;;;;;;4.87;70.18;97691.13;4482981;31;34501;-88
2023/12/01 04:47:55;;;;;;;18.58;12.50;;;;;;;4.99;69.84;97699.81;4492552;31;34890;-87
2023/12/01 04:50:31;;;;;;;20.42;14.35;;;;;;;4.90;69.91;97697.16;4506636;31;33857;-91
2023/12/01 04:53:00;;;;;;;20.92;14.50;;;;;;;4.57;70.87;97690.75;4511426;31;33408;-89
2023/12/01 04:55:29;;;;;;;13.75;5.72;;;;;;;4.61;70.85;97693.38;4513436;31;33805;-89
2023/12/01 04:57:58;;;;;;;19.55;15.82;;;;;;;5.24;69.38;97683.84;4491300;31;34133;-88
2023/12/01 05:00:27;;;;;;;16.35;12.93;;;;;;;4.86;70.20;97688.56;4504943;31;33926;-88
2023/12/01 05:03:00;;;;;;;26.25;16.87;;;;;;;5.00;69.65;97681.88;4496880;31;33396;-89
2023/12/01 05:05:29;;;;;;;28.87;20.85;;;;;;;4.28;71.69;97682.66;4510896;31;33563;-90
2023/12/01 05:07:58;;;;;;;16.80;8.02;;;;;;;3.85;73.59;97677.78;4497209;31;33947;-89
2023/12/01 05:10:29;;;;;;;31.37;13.05;;;;;;;4.37;72.13;97683.66;4492532;31;33597;-89
2023/12/01 05:12:59;;;;;;;37.80;17.50;;;;;;;4.12;72.77;97681.59;4503332;31;33186;-90
2023/12/01 05:15:30;;;;;;;42.88;32.95;;;;;;;4.44;71.71;97689.75;4493262;31;34988;-89
2023/12/01 05:17:59;;;;;;;32.60;24.23;;;;;;;4.06;72.52;97687.53;4503268;31;33355;-87
2023/12/01 05:20:27;;;;;;;24.75;18.20;;;;;;;4.05;72.92;97684.91;4491827;31;34780;-89
2023/12/01 05:23:00;;;;;;;17.98;10.05;;;;;;;4.24;72.11;97684.34;4502294;31;33419;-89
2023/12/01 05:25:32;;;;;;;25.75;19.48;;;;;;;4.64;71.38;97695.12;4499985;31;33704;-89
2023/12/01 05:28:06;;;;;;;29.12;21.17;;;;;;;4.41;71.53;97699.97;4497621;31;33586;-88
2023/12/01 05:30:35;;;;;;;23.33;17.80;;;;;;;4.00;72.95;97696.81;4515938;31;34285;-89
2023/12/01 05:33:09;;;;;;;25.27;19.08;;;;;;;4.38;71.52;97700.78;4504454;31;34129;-89
2023/12/01 05:35:38;;;;;;;26.77;20.10;;;;;;;4.08;72.38;97700.34;4512469;31;33548;-88
2023/12/01 05:38:06;;;;;;;17.30;8.75;;;;;;;3.85;73.63;97705.13;4510844;31;33796;-89
2023/12/01 05:40:35;;;;;;;21.50;9.85;;;;;;;4.51;71.41;97704.41;4494332;31;33384;-88
2023/12/01 05:43:05;;;;;;;29.83;22.98;;;;;;;3.60;74.25;97698.78;4517365;31;33760;-89
2023/12/01 05:45:34;;;;;;;33.67;24.00;;;;;;;4.11;72.41;97708.97;4488578;31;34701;-88
2023/12/01 05:48:02;;;;;;;20.80;11.35;;;;;;;3.62;74.68;97699.63;4508263;31;34346;-89
2023/12/01 05:50:31;;;;;;;42.20;26.62;;;;;;;3.83;74.42;97694.00;4498384;31;34500;-89
2023/12/01 05:53:03;;;;;;;32.25;23.70;;;;;;;3.89;73.55;97700.06;4489194;31;33179;-89
2023/12/01 05:55:33;;;;;;;19.92;10.05;;;;;;;4.24;72.47;97702.28;4489438;31;33958;-88
2023/12/01 05:58:12;;;;;;;35.47;24.50;;;;;;;4.59;71.70;97701.94;4496179;31;34346;-89
2023/12/01 06:00:42;;;;;;;35.40;24.95;;;;;;;4.17;72.23;97720.13;4497302;31;34510;-89
2023/12/01 06:03:11;;;;;;;35.92;24.45;;;;;;;4.27;72.08;97706.59;4489631;31;33138;-88
2023/12/01 06:05:39;;;;;;;20.92;10.93;;;;;;;4.09;72.55;97709.75;4490862;31;33778;-88
2023/12/01 06:08:09;;;;;;;30.42;22.58;;;;;;;4.57;71.65;97719.00;4500303;31;34665;-87
2023/12/01 06:10:38;;;;;;;33.47;25.25;;;;;;;4.45;71.73;97717.13;4488305;31;34732;-89
2023/12/01 06:13:06;;;;;;;19.80;9.75;;;;;;;4.48;71.92;97716.31;4468456;31;32517;-87
2023/12/01 06:15:34;;;;;;;18.85;9.77;;;;;;;4.69;71.53;97718.28;4500690;31;33780;-89
2023/12/01 06:18:02;;;;;;;20.52;9.98;;;;;;;4.50;71.92;97712.06;4507226;31;33996;-88
2023/12/01 06:20:31;;;;;;;34.08;24.25;;;;;;;4.77;71.16;97716.69;4489165;31;33092;-88
2023/12/01 06:23:01;;;;;;;34.38;24.63;;;;;;;4.40;71.77;97731.63;4503408;31;32218;-86
2023/12/01 06:25:31;;;;;;;32.83;24.10;;;;;;;4.68;71.51;97730.25;4485772;31;32730;-92
2023/12/01 06:28:04;;;;;;;31.60;23.87;;;;;;;4.76;71.34;97723.53;4490967;31;34186;-86
2023/12/01 06:30:33;;;;;;;31.58;23.70;;;;;;;4.69;71.64;97733.69;4488098;31;33948;-88
2023/12/01 06:33:05;;;;;;;20.98;10.77;;;;;;;4.69;71.23;97719.16;4507932;31;34093;-88
2023/12/01 06:35:33;;;;;;;20.05;10.70;;;;;;;4.75;71.12;97731.22;4500181;31;33757;-88
2023/12/01 06:38:00;;;;;;;19.05;9.90;;;;;;;4.87;70.92;97721.94;4499250;31;33987;-90
2023/12/01 06:40:28;;;;;;;32.88;22.98;;;;;;;4.88;70.84;97728.78;4506858;31;33813;-90
2023/12/01 06:42:56;;;;;;;30.23;22.60;;;;;;;4.81;71.03;97721.00;4498283;31;33735;-89
2023/12/01 06:45:28;;;;;;;31.90;23.12;;;;;;;4.96;70.42;97731.47;4500667;31;32601;-90
2023/12/01 06:47:59;;;;;;;36.13;23.90;;;;;;;4.68;71.37;97725.13;4496312;31;34026;-90
2023/12/01 06:50:30;;;;;;;34.75;25.25;;;;;;;5.04;70.37;97713.59;4491868;31;32582;-88
2023/12/01 06:52:59;;;;;;;39.42;27.20;;;;;;;4.49;71.04;97718.91;4505475;31;33556;-89
2023/12/01 06:55:27;;;;;;;37.17;25.50;;;;;;;4.54;70.92;97727.50;4499782;31;33777;-90
2023/12/01 06:57:55;;;;;;;31.27;23.23;;;;;;;4.64;70.85;97723.38;4508583;31;33464;-90
2023/12/01 07:00:29;;;;;;;37.88;26.83;;;;;;;4.67;70.78;97731.13;4499455;31;33674;-89
2023/12/01 07:03:00;;;;;;;36.95;27.20;;;;;;;4.60;71.08;97729.31;4499604;31;33162;-90
2023/12/01 07:05:31;;;;;;;50.97;31.05;;;;;;;4.56;71.40;97732.69;4512767;31;33554;-89
2023/12/01 07:08:00;;;;;;;75.47;39.42;;;;;;;4.45;72.11;97722.25;4495913;31;33570;-92
2023/12/01 07:10:29;;;;;;;71.57;41.50;;;;;;;4.37;71.81;97742.69;4484743;31;33781;-91
2023/12/01 07:12:56;;;;;;;75.18;44.20;;;;;;;4.59;70.97;97732.72;4495913;31;32162;-90
2023/12/01 07:15:24;;;;;;;55.38;38.17;;;;;;;4.31;72.10;97744.28;4510811;31;34913;-87
2023/12/01 07:17:54;;;;;;;49.08;34.28;;;;;;;4.47;71.84;97764.22;4497490;31;34907;-90
2023/12/01 07:20:23;;;;;;;37.63;27.40;;;;;;;4.33;72.16;97746.06;4498457;31;34310;-89
2023/12/01 07:22:52;;;;;;;35.30;25.05;;;;;;;4.45;72.08;97767.59;4488272;31;34257;-90
2023/12/01 07:25:23;;;;;;;38.33;25.77;;;;;;;4.43;72.21;97759.84;4497581;31;33596;-90
2023/12/01 07:28:00;;;;;;;;;;;;;;;4.22;73.01;97742.47;4494188;31;34037;-91
2023/12/01 07:30:28;;;;;;;19.85;9.68;;;;;;;4.26;73.37;97757.06;4492777;31;34032;-91
2023/12/01 07:32:58;;;;;;;32.22;25.62;;;;;;;3.84;75.32;97726.50;4503327;31;34201;-90
2023/12/01 07:35:25;;;;;;;17.77;9.68;;;;;;;4.22;73.24;97726.22;4496818;31;32540;-88
2023/12/01 07:37:54;;;;;;;46.55;25.58;;;;;;;4.35;73.52;97733.22;4501849;31;34095;-90
2023/12/01 07:40:23;;;;;;;27.73;21.33;;;;;;;4.67;72.02;97743.94;4505505;31;33632;-90
2023/12/01 07:42:53;;;;;;;49.40;26.98;;;;;;;4.34;73.08;97745.19;4493602;31;33286;-89
2023/12/01 07:45:22;;;;;;;39.78;21.83;;;;;;;4.30;73.46;97743.44;4486874;31;33579;-90
2023/12/01 07:47:52;;;;;;;26.80;20.98;;;;;;;4.40;72.82;97731.63;4500615;31;33854;-90
2023/12/01 07:50:20;;;;;;;32.22;22.77;;;;;;;4.45;72.97;97744.50;4495728;31;34111;-92
2023/12/01 07:52:49;;;;;;;29.92;23.35;;;;;;;4.49;73.20;97734.28;4512093;31;33599;-90
2023/12/01 07:55:21;;;;;;;27.60;21.80;;;;;;;4.54;73.10;97744.63;4494895;31;33802;-89
2023/12/01 07:57:48;;;;;;;18.55;9.82;;;;;;;4.42;73.52;97757.28;4510845;31;34358;-90
2023/12/01 08:00:16;;;;;;;26.10;20.20;;;;;;;4.31;74.18;97757.97;4485749;31;33546;-90
2023/12/01 08:02:51;;;;;;;29.50;22.05;;;;;;;4.11;75.09;97759.38;4500439;31;33186;-89
2023/12/01 08:05:22;;;;;;;14.43;7.20;;;;;;;3.95;75.74;97742.03;4493898;31;33781;-91
2023/12/01 08:07:52;;;;;;;29.95;21.37;;;;;;;4.11;75.58;97769.66;4487782;31;35003;-90
2023/12/01 08:10:23;;;;;;;22.48;18.17;;;;;;;4.18;75.32;97766.34;4511419;31;33536;-91
2023/12/01 08:12:56;;;;;;;27.25;19.52;;;;;;;4.18;75.07;97786.00;4507528;31;34265;-91
2023/12/01 08:15:26;;;;;;;14.07;6.95;;;;;;;4.32;74.63;97758.88;4502974;31;33760;-92
2023/12/01 08:17:57;;;;;;;27.42;19.42;;;;;;;3.83;76.77;97766.66;4489801;31;33844;-90
2023/12/01 08:20:28;;;;;;;32.65;20.52;;;;;;;3.88;77.03;97770.13;4500027;31;34471;-91
2023/12/01 08:22:57;;;;;;;26.42;19.60;;;;;;;4.24;76.00;97753.59;4502205;31;33515;-89
2023/12/01 08:25:26;;;;;;;13.35;8.02;;;;;;;3.60;78.72;97767.97;4488882;31;33349;-89
2023/12/01 08:27:54;;;;;;;18.33;9.70;;;;;;;4.23;77.02;97756.16;4513687;31;33670;-87
2023/12/01 08:30:22;;;;;;;24.77;19.80;;;;;;;4.23;76.94;97774.09;4497371;31;33183;-89
2023/12/01 08:32:53;;;;;;;25.52;19.62;;;;;;;4.34;76.16;97773.41;4507021;31;33877;-89
2023/12/01 08:35:22;;;;;;;42.08;29.42;;;;;;;4.34;76.33;97755.47;4494268;31;33626;-88
2023/12/01 08:37:51;;;;;;;27.85;21.90;;;;;;;4.68;75.24;97760.22;4488493;31;34116;-91
2023/12/01 08:40:18;;;;;;;28.77;22.20;;;;;;;4.42;75.82;97772.69;4476303;31;33811;-93
2023/12/01 08:42:52;;;;;;;23.65;19.30;;;;;;;4.57;75.33;97784.03;4512642;31;33598;-93
2023/12/01 08:45:20;;;;;;;24.33;19.50;;;;;;;4.63;75.14;97768.72;4484826;31;32943;-91
2023/12/01 08:47:48;;;;;;;29.37;23.12;;;;;;;4.92;74.25;97765.66;4475052;31;33179;-92
2023/12/01 08:50:17;;;;;;;28.33;22.13;;;;;;;4.81;74.25;97764.66;4472620;31;33647;-90
2023/12/01 08:52:45;;;;;;;54.47;36.83;;;;;;;4.78;74.81;97768.06;4483753;31;34187;-92
2023/12/01 08:55:12;;;;;;;46.88;31.50;;;;;;;4.38;76.11;97776.91;4479598;31;33234;-92
2023/12/01 08:57:40;;;;;;;34.70;26.25;;;;;;;4.84;74.85;97773.25;4471506;31;33186;-90
2023/12/01 09:00:09;;;;;;;29.55;23.25;;;;;;;4.47;75.16;97777.06;4490493;31;34418;-92
2023/12/01 09:02:37;;;;;;;32.00;24.92;;;;;;;4.71;74.83;97786.78;4483646;31;34402;-94
2023/12/01 09:05:26;;;;;;;19.20;11.55;;;;;;;4.63;74.92;97778.13;4472106;31;32837;-94
2023/12/01 09:07:53;;;;;;;31.25;25.40;;;;;;;5.19;73.26;97783.13;4462116;31;32696;-90
2023/12/01 09:10:22;;;;;;;27.75;22.67;;;;;;;4.81;73.75;97787.75;4496693;31;32793;-91
2023/12/01 09:13:09;;;;;;;24.80;20.80;;;;;;;4.61;74.61;97784.94;4484635;31;32491;-92
2023/12/01 09:15:37;;;;;;;13.05;7.03;;;;;;;5.06;73.22;97788.94;4477743;31;33964;-93
2023/12/01 09:18:05;;;;;;;19.80;16.40;;;;;;;4.93;73.27;97777.66;4473454;31;34368;-92
2023/12/01 09:20:34;;;;;;;19.42;16.52;;;;;;;4.68;73.75;97775.63;4484526;31;32970;-94
2023/12/01 09:23:02;;;;;;;20.65;16.05;;;;;;;4.03;76.05;97784.06;4470081;31;33028;-91
2023/12/01 09:25:29;;;;;;;12.20;7.10;;;;;;;4.33;74.96;97788.81;4471869;31;32428;-92
2023/12/01 09:27:58;;;;;;;17.05;8.20;;;;;;;4.34;75.03;97791.37;4471297;31;34992;-91
2023/12/01 09:30:25;;;;;;;19.55;16.23;;;;;;;3.88;75.76;97767.56;4470539;31;34185;-91
2023/12/01 09:32:53;;;;;;;15.45;7.93;;;;;;;3.98;76.08;97762.59;4483704;31;33502;-92
2023/12/01 09:35:23;;;;;;;22.73;18.67;;;;;;;4.16;75.27;97765.44;4470541;31;34647;-91
2023/12/01 09:38:11;;;;;;;13.95;6.25;;;;;;;3.83;76.35;97761.53;4488085;31;34136;-91
2023/12/01 09:40:43;;;;;;;22.17;17.48;;;;;;;4.26;75.04;97763.91;4508951;31;34115;-93
2023/12/01 09:43:13;;;;;;;22.45;17.37;;;;;;;4.14;74.77;97762.88;4483392;31;32316;-93
2023/12/01 09:45:41;;;;;;;14.18;8.05;;;;;;;3.97;75.59;97771.97;4473375;31;33199;-90
2023/12/01 09:48:10;;;;;;;21.45;17.77;;;;;;;4.02;75.73;97770.38;4486989;31;33638;-91
2023/12/01 09:50:39;;;;;;;22.98;17.42;;;;;;;4.10;75.05;97749.97;4487367;31;33188;-89
2023/12/01 09:53:07;;;;;;;21.23;16.83;;;;;;;3.48;76.87;97731.84;4485031;31;33498;-90
2023/12/01 09:55:35;;;;;;;11.82;6.20;;;;;;;3.19;79.16;97721.09;4485417;31;34229;-89
2023/12/01 09:58:03;;;;;;;12.37;5.35;;;;;;;3.29;78.79;97722.97;4484340;31;33645;-90
2023/12/01 10:00:31;;;;;;;14.80;12.48;;;;;;;3.03;79.74;97742.97;4499619;31;33897;-89
2023/12/01 10:02:59;;;;;;;15.55;12.32;;;;;;;3.09;79.85;97741.38;4505413;31;33162;-91
2023/12/01 10:05:29;;;;;;;10.10;5.03;;;;;;;2.92;81.33;97737.66;4503784;31;34593;-91
2023/12/01 10:07:58;;;;;;;16.70;12.02;;;;;;;3.01;81.34;97744.66;4475928;31;33389;-89
2023/12/01 10:10:28;;;;;;;17.08;13.32;;;;;;;2.81;81.78;97747.66;4493730;31;32786;-89
2023/12/01 10:12:58;;;;;;;20.00;15.32;;;;;;;2.70;83.11;97738.06;4505175;31;33017;-90
2023/12/01 10:15:27;;;;;;;14.80;6.62;;;;;;;2.49;84.28;97739.31;4487570;31;33542;-89
2023/12/01 10:18:09;;;;;;;19.60;15.63;;;;;;;2.42;84.62;97728.09;4487311;31;34627;-93
2023/12/01 10:21:02;;;;;;;12.98;6.05;;;;;;;2.78;83.49;97723.72;4488920;31;34661;-91
2023/12/01 10:23:33;;;;;;;23.45;17.67;;;;;;;2.76;83.27;97723.66;4514681;31;33510;-93
2023/12/01 10:26:04;;;;;;;10.70;5.12;;;;;;;2.89;82.26;97724.78;4484396;31;33084;-91
2023/12/01 10:28:40;;;;;;;24.30;18.85;;;;;;;2.76;83.45;97723.66;4493749;31;33669;-91
2023/12/01 10:31:09;;;;;;;;;;;;;;;2.60;83.58;97711.41;4479606;31;33168;-92
2023/12/01 10:33:39;;;;;;;15.00;6.70;;;;;;;2.31;84.96;97706.53;4494612;31;33440;-90
2023/12/01 10:36:26;;;;;;;22.23;18.73;;;;;;;2.72;84.06;97713.34;4496703;31;34414;-91
2023/12/01 10:38:56;;;;;;;13.15;6.97;;;;;;;2.93;82.67;97719.75;4476658;31;34346;-88
2023/12/01 10:41:25;;;;;;;28.45;23.42;;;;;;;2.81;83.14;97722.06;4491660;31;33431;-88
2023/12/01 10:43:53;;;;;;;22.30;19.10;;;;;;;2.53;84.36;97719.78;4488054;31;33873;-88
2023/12/01 10:46:22;;;;;;;13.30;6.85;;;;;;;2.92;82.70;97719.75;4504331;31;33919;-88
2023/12/01 10:48:50;;;;;;;13.38;6.05;;;;;;;2.97;83.07;97699.34;4484717;31;34691;-86
2023/12/01 10:51:17;;;;;;;19.37;15.07;;;;;;;3.20;81.83;97703.19;4486396;31;33607;-89
2023/12/01 10:53:45;;;;;;;14.73;5.60;;;;;;;2.97;82.58;97700.19;4499029;31;33935;-89
2023/12/01 10:56:16;;;;;;;17.77;13.95;;;;;;;3.14;82.28;97708.19;4497706;31;34533;-88
2023/12/01 10:58:45;;;;;;;18.27;14.85;;;;;;;3.36;81.32;97709.44;4484882;31;34986;-89
2023/12/01 11:01:14;;;;;;;10.23;5.32;;;;;;;3.19;81.26;97705.72;4484779;31;33829;-89
2023/12/01 11:03:45;;;;;;;20.80;16.08;;;;;;;2.82;83.16;97698.19;4497603;31;33118;-88
2023/12/01 11:06:41;;;;;;;10.82;6.37;;;;;;;2.62;83.99;97695.25;4484778;31;33782;-87
2023/12/01 11:09:30;;;;;;;19.45;16.05;;;;;;;3.51;80.99;97675.53;4499226;31;34829;-88
2023/12/01 11:12:27;;;;;;;11.88;5.75;;;;;;;2.90;82.54;97671.06;4499024;31;34069;-91
2023/12/01 11:15:09;;;;;;;13.23;6.03;;;;;;;2.98;83.26;97672.91;4484264;31;32810;-88
2023/12/01 11:17:36;;;;;;;9.48;4.47;;;;;;;3.12;82.51;97686.81;4498885;31;33282;-89
2023/12/01 11:20:39;;;;;;;14.05;7.10;;;;;;;2.87;82.90;97691.47;4497918;31;33810;-89
2023/12/01 11:23:10;;;;;;;15.35;7.53;;;;;;;2.88;83.83;97666.75;4499084;31;34493;-89
2023/12/01 11:25:44;;;;;;;20.20;16.77;;;;;;;2.81;83.92;97676.00;4484485;31;33131;-91
2023/12/01 11:28:21;;;;;;;12.05;6.15;;;;;;;2.90;84.05;97677.88;4484771;31;33458;-89
2023/12/01 11:31:08;;;;;;;13.57;5.70;;;;;;;3.17;82.86;97685.19;4484630;31;34126;-89
2023/12/01 11:33:58;;;;;;;18.10;15.07;;;;;;;3.22;81.90;97669.91;4485030;31;33912;-89
2023/12/01 11:36:35;;;;;;;21.23;16.87;;;;;;;3.37;81.24;97660.81;4498958;31;33358;-89
2023/12/01 11:41:44;;;;;;;16.65;13.48;;;;;;;3.86;79.41;97683.78;4498949;31;34550;-89
2023/12/01 11:44:16;;;;;;;11.73;6.15;;;;;;;3.60;79.79;97676.56;4499103;31;33559;-88
2023/12/01 11:46:45;;;;;;;19.17;15.13;;;;;;;4.06;78.56;97672.12;4484265;31;33138;-89